Latest Weather Observations for Sellicks Hill

IDS60901

Issued at 2:41 pm CST Sunday 18 August 2019 (issued every 10 minutes, with the page automatically refreshed every 10 minutes)

About weather observations | Map of Adelaide area stations | Latest observations for Adelaide area | Other Formats
Station Details ID: 023886 Name: MOUNT TERRIBLE RADAR Lat: -35.33 Lon: 138.50 Height: 385.7 m
Data from the previous 72 hours. | See also: Recent months at Sellicks Hill
Date/Time
CST
Temp
°C
App
Temp
°C
Dew
Point
°C
Rel
Hum
%
Delta-T
°C
Wind Press
QNH
hPa
Press
MSL
hPa
Rain since
9am
mm
Dir  Spd
km/h
Gust
km/h
Spd
kts
Gust
kts
18/02:30pm - - - - - W 7 17 4 9 - - -
18/02:00pm - - - - - W 9 30 5 16 - - -
18/01:30pm - - - - - W 15 41 8 22 - - -
18/01:00pm - - - - - WNW 13 24 7 13 - - -
18/12:30pm - - - - - WNW 9 17 5 9 - - -
18/12:00pm - - - - - NW 13 22 7 12 - - -
18/11:30am - - - - - WNW 20 50 11 27 - - -
18/11:00am - - - - - WNW 11 22 6 12 - - -
18/10:30am - - - - - NW 11 26 6 14 - - -
18/10:00am - - - - - WNW 20 43 11 23 - - -
18/09:30am - - - - - NW 17 33 9 18 - - -
18/09:00am - - - - - NW 11 24 6 13 - - -
18/08:30am - - - - - WNW 15 37 8 20 - - -
18/08:00am - - - - - WNW 19 33 10 18 - - -
18/07:30am - - - - - NW 19 41 10 22 - - -
18/07:00am - - - - - NW 20 43 11 23 - - -
18/06:30am - - - - - NW 19 41 10 22 - - -
18/06:00am - - - - - NW 13 26 7 14 - - -
18/05:30am - - - - - NW 15 28 8 15 - - -
18/05:00am - - - - - NW 17 32 9 17 - - -
18/04:30am - - - - - NW 13 26 7 14 - - -
18/04:00am - - - - - NW 11 20 6 11 - - -
18/03:30am - - - - - NW 13 24 7 13 - - -
18/03:00am - - - - - NW 11 19 6 10 - - -
18/02:30am - - - - - NW 13 20 7 11 - - -
18/02:00am - - - - - NW 11 22 6 12 - - -
18/01:30am - - - - - NW 11 22 6 12 - - -
18/01:00am - - - - - NNW 13 20 7 11 - - -
18/12:30am - - - - - NW 11 19 6 10 - - -
18/12:00am - - - - - NNW 9 17 5 9 - - -
 
Date/Time
CST
Temp
°C
App
Temp
°C
Dew
Point
°C
Rel
Hum
%
Delta-T
°C
Wind Press
QNH
hPa
Press
MSL
hPa
Rain since
9am
mm
Dir  Spd
km/h
Gust
km/h
Spd
kts
Gust
kts
17/11:30pm - - - - - NW 9 17 5 9 - - -
17/11:00pm - - - - - NNW 11 19 6 10 - - -
17/10:30pm - - - - - NNW 13 20 7 11 - - -
17/10:00pm - - - - - NNW 13 19 7 10 - - -
17/09:30pm - - - - - NNW 13 17 7 9 - - -
17/09:00pm - - - - - NNW 13 20 7 11 - - -
17/08:30pm - - - - - NNW 13 20 7 11 - - -
17/08:00pm - - - - - NNW 13 26 7 14 - - -
17/07:30pm - - - - - NNW 11 20 6 11 - - -
17/07:00pm - - - - - N 9 17 5 9 - - -
17/06:30pm - - - - - NNW 11 19 6 10 - - -
17/06:00pm - - - - - N 11 19 6 10 - - -
17/05:30pm - - - - - N 11 17 6 9 - - -
17/05:00pm - - - - - N 7 15 4 8 - - -
17/04:30pm - - - - - NNW 7 9 4 5 - - -
17/04:00pm - - - - - NNW 7 11 4 6 - - -
17/03:30pm - - - - - N 9 15 5 8 - - -
17/03:00pm - - - - - NNW 9 15 5 8 - - -
17/02:30pm - - - - - NNW 13 22 7 12 - - -
17/02:00pm - - - - - NNW 13 28 7 15 - - -
17/01:30pm - - - - - NNW 13 26 7 14 - - -
17/01:00pm - - - - - NNW 17 26 9 14 - - -
17/12:30pm - - - - - NNW 15 26 8 14 - - -
17/12:00pm - - - - - NNW 17 28 9 15 - - -
17/11:30am - - - - - NNW 9 17 5 9 - - -
17/11:00am - - - - - NNW 9 17 5 9 - - -
17/10:30am - - - - - N 11 20 6 11 - - -
17/10:00am - - - - - N 9 20 5 11 - - -
17/09:30am - - - - - N 9 15 5 8 - - -
17/09:00am - - - - - NNE 11 20 6 11 - - -
17/08:30am - - - - - NNE 9 19 5 10 - - -
17/08:00am - - - - - NNE 9 17 5 9 - - -
17/07:30am - - - - - NNE 7 17 4 9 - - -
17/07:00am - - - - - NNE 7 13 4 7 - - -
17/06:30am - - - - - N 6 15 3 8 - - -
17/06:00am - - - - - NNE 7 13 4 7 - - -
17/05:30am - - - - - NNE 7 13 4 7 - - -
17/05:00am - - - - - NE 7 13 4 7 - - -
17/04:30am - - - - - NE 9 15 5 8 - - -
17/04:00am - - - - - NE 9 13 5 7 - - -
17/03:30am - - - - - NE 13 17 7 9 - - -
17/03:00am - - - - - ENE 17 26 9 14 - - -
17/02:30am - - - - - ENE 17 24 9 13 - - -
17/02:00am - - - - - E 17 22 9 12 - - -
17/01:30am - - - - - E 13 19 7 10 - - -
17/01:00am - - - - - E 13 17 7 9 - - -
17/12:30am - - - - - ESE 11 15 6 8 - - -
17/12:00am - - - - - ESE 9 13 5 7 - - -
 
Date/Time
CST
Temp
°C
App
Temp
°C
Dew
Point
°C
Rel
Hum
%
Delta-T
°C
Wind Press
QNH
hPa
Press
MSL
hPa
Rain since
9am
mm
Dir  Spd
km/h
Gust
km/h
Spd
kts
Gust
kts
16/11:30pm - - - - - SE 11 13 6 7 - - -
16/11:00pm - - - - - SE 13 15 7 8 - - -
16/10:30pm - - - - - SSE 15 15 8 8 - - -
16/10:00pm - - - - - SSE 15 17 8 9 - - -
16/09:30pm - - - - - SSE 15 15 8 8 - - -
16/09:00pm - - - - - SSE 15 17 8 9 - - -
16/08:30pm - - - - - SSE 15 17 8 9 - - -
16/08:00pm - - - - - SSE 15 17 8 9 - - -
16/07:30pm - - - - - SSE 17 19 9 10 - - -
16/07:00pm - - - - - SSE 19 20 10 11 - - -
16/06:30pm - - - - - SSE 19 20 10 11 - - -
16/06:00pm - - - - - S 17 20 9 11 - - -
16/05:30pm - - - - - S 17 19 9 10 - - -
16/05:00pm - - - - - SSE 19 24 10 13 - - -
16/04:30pm - - - - - S 15 24 8 13 - - -
16/04:00pm - - - - - S 17 28 9 15 - - -
16/03:30pm - - - - - S 22 32 12 17 - - -
16/03:00pm - - - - - S 28 33 15 18 - - -
16/02:30pm - - - - - S 20 33 11 18 - - -
16/02:00pm - - - - - S 30 37 16 20 - - -
16/01:30pm - - - - - S 24 33 13 18 - - -
16/01:00pm - - - - - S 20 32 11 17 - - -
16/12:30pm - - - - - S 19 32 10 17 - - -
16/12:00pm - - - - - SSW 13 28 7 15 - - -
16/11:30am - - - - - SSW 13 22 7 12 - - -
16/11:00am - - - - - S 17 28 9 15 - - -
16/10:30am - - - - - S 20 39 11 21 - - -
16/10:00am - - - - - SSW 11 19 6 10 - - -
16/09:30am - - - - - SSW 11 28 6 15 - - -
16/09:00am - - - - - WSW 7 19 4 10 - - -
16/08:30am - - - - - NW 9 20 5 11 - - -
16/08:00am - - - - - NW 9 20 5 11 - - -
16/07:30am - - - - - NW 13 22 7 12 - - -
16/07:00am - - - - - NNW 15 26 8 14 - - -
16/06:30am - - - - - NNW 15 24 8 13 - - -
16/06:00am - - - - - NW 13 28 7 15 - - -
16/05:30am - - - - - NW 11 26 6 14 - - -
16/05:00am - - - - - NW 13 30 7 16 - - -
16/04:30am - - - - - NW 15 24 8 13 - - -
16/04:00am - - - - - NNW 13 22 7 12 - - -
16/03:30am - - - - - NNW 13 22 7 12 - - -
16/03:00am - - - - - NW 13 22 7 12 - - -
16/02:30am - - - - - NNW 15 22 8 12 - - -
16/02:00am - - - - - NNW 15 26 8 14 - - -
16/01:30am - - - - - NNW 17 30 9 16 - - -
16/01:00am - - - - - NNW 13 22 7 12 - - -
16/12:30am - - - - - NNW 17 28 9 15 - - -
16/12:00am - - - - - NNW 17 24 9 13 - - -
 
Date/Time
CST
Temp
°C
App
Temp
°C
Dew
Point
°C
Rel
Hum
%
Delta-T
°C
Wind Press
QNH
hPa
Press
MSL
hPa
Rain since
9am
mm
Dir  Spd
km/h
Gust
km/h
Spd
kts
Gust
kts
15/11:30pm - - - - - NNW 20 43 11 23 - - -
15/11:00pm - - - - - NNW 22 41 12 22 - - -
15/10:30pm - - - - - NNW 24 43 13 23 - - -
15/10:00pm - - - - - NNW 22 39 12 21 - - -
15/09:30pm - - - - - NNW 20 39 11 21 - - -
15/09:00pm - - - - - NNW 20 35 11 19 - - -
15/08:30pm - - - - - N 19 32 10 17 - - -
15/08:00pm - - - - - N 20 33 11 18 - - -
15/07:30pm - - - - - N 19 39 10 21 - - -
15/07:00pm - - - - - N 17 32 9 17 - - -
15/06:30pm - - - - - N 19 33 10 18 - - -
15/06:00pm - - - - - N 15 32 8 17 - - -
15/05:30pm - - - - - NNW 19 32 10 17 - - -
15/05:00pm - - - - - NNW 19 28 10 15 - - -
15/04:30pm - - - - - NNW 17 30 9 16 - - -
15/04:00pm - - - - - NNW 17 32 9 17 - - -
15/03:30pm - - - - - NNW 17 28 9 15 - - -
15/03:00pm - - - - - N 17 30 9 16 - - -

Latest Capital City Observations: Canberra | Sydney | Melbourne | Brisbane | Adelaide | Perth | Hobart | Darwin

Other formats

Comma delimited format used in spreadsheet applications
http://www.bom.gov.au/fwo/IDS60901/IDS60901.95679.axf

JavaScript Object Notation format (JSON) in row-major order
http://www.bom.gov.au/fwo/IDS60901/IDS60901.95679.json

Data quality

Most of these data are generated automatically and are frequently updated. Quality checks on data are not normally performed. It is possible for incorrect values to appear. Refer to information at About Latest Weather Observations and please check the disclaimer before using these data.